sensor_id;sensor_type;location;lat;lon;timestamp;P1;durP1;ratioP1;P2;durP2;ratioP2
44181;SDS011;30436;48.888;9.202;2022-07-11T00:02:18;1.57;;;1.30;;
44181;SDS011;30436;48.888;9.202;2022-07-11T00:04:44;1.73;;;1.37;;
44181;SDS011;30436;48.888;9.202;2022-07-11T00:07:13;1.90;;;1.40;;
44181;SDS011;30436;48.888;9.202;2022-07-11T00:09:39;1.33;;;1.20;;
44181;SDS011;30436;48.888;9.202;2022-07-11T00:12:05;2.40;;;1.57;;
44181;SDS011;30436;48.888;9.202;2022-07-11T00:14:32;2.80;;;1.93;;
44181;SDS011;30436;48.888;9.202;2022-07-11T00:16:57;2.77;;;1.40;;
44181;SDS011;30436;48.888;9.202;2022-07-11T00:19:23;1.80;;;1.43;;
44181;SDS011;30436;48.888;9.202;2022-07-11T00:21:49;1.77;;;1.53;;
44181;SDS011;30436;48.888;9.202;2022-07-11T00:24:16;1.40;;;1.30;;
44181;SDS011;30436;48.888;9.202;2022-07-11T00:26:45;2.00;;;1.40;;
44181;SDS011;30436;48.888;9.202;2022-07-11T00:29:12;1.83;;;1.10;;
44181;SDS011;30436;48.888;9.202;2022-07-11T00:31:37;2.60;;;1.70;;
44181;SDS011;30436;48.888;9.202;2022-07-11T00:34:03;3.93;;;1.70;;
44181;SDS011;30436;48.888;9.202;2022-07-11T00:36:29;1.67;;;1.57;;
44181;SDS011;30436;48.888;9.202;2022-07-11T00:38:56;2.10;;;1.27;;
44181;SDS011;30436;48.888;9.202;2022-07-11T00:41:22;1.60;;;1.30;;
44181;SDS011;30436;48.888;9.202;2022-07-11T00:43:53;2.47;;;1.57;;
44181;SDS011;30436;48.888;9.202;2022-07-11T00:46:21;2.67;;;1.30;;
44181;SDS011;30436;48.888;9.202;2022-07-11T00:48:48;1.30;;;1.20;;
44181;SDS011;30436;48.888;9.202;2022-07-11T00:51:13;2.87;;;1.47;;
44181;SDS011;30436;48.888;9.202;2022-07-11T00:53:40;1.63;;;1.30;;
44181;SDS011;30436;48.888;9.202;2022-07-11T00:56:07;2.50;;;1.40;;
44181;SDS011;30436;48.888;9.202;2022-07-11T00:58:33;1.43;;;1.33;;
44181;SDS011;30436;48.888;9.202;2022-07-11T01:01:00;1.70;;;1.60;;
44181;SDS011;30436;48.888;9.202;2022-07-11T01:03:27;2.23;;;1.70;;
44181;SDS011;30436;48.888;9.202;2022-07-11T01:05:53;2.43;;;1.60;;
44181;SDS011;30436;48.888;9.202;2022-07-11T01:08:19;3.20;;;1.40;;
44181;SDS011;30436;48.888;9.202;2022-07-11T01:10:45;2.93;;;1.40;;
44181;SDS011;30436;48.888;9.202;2022-07-11T01:13:11;1.73;;;1.40;;
44181;SDS011;30436;48.888;9.202;2022-07-11T01:15:37;1.60;;;1.50;;
44181;SDS011;30436;48.888;9.202;2022-07-11T01:18:03;1.50;;;1.40;;
44181;SDS011;30436;48.888;9.202;2022-07-11T01:20:29;1.67;;;1.50;;
44181;SDS011;30436;48.888;9.202;2022-07-11T01:25:31;1.60;;;1.50;;
44181;SDS011;30436;48.888;9.202;2022-07-11T01:27:58;3.93;;;1.53;;
44181;SDS011;30436;48.888;9.202;2022-07-11T01:30:28;1.77;;;1.40;;
44181;SDS011;30436;48.888;9.202;2022-07-11T01:32:55;2.07;;;1.47;;
44181;SDS011;30436;48.888;9.202;2022-07-11T01:35:21;1.67;;;1.50;;
44181;SDS011;30436;48.888;9.202;2022-07-11T01:37:48;1.70;;;1.60;;
44181;SDS011;30436;48.888;9.202;2022-07-11T01:40:14;2.87;;;1.50;;
44181;SDS011;30436;48.888;9.202;2022-07-11T01:42:40;3.67;;;1.60;;
44181;SDS011;30436;48.888;9.202;2022-07-11T01:45:06;2.50;;;1.50;;
44181;SDS011;30436;48.888;9.202;2022-07-11T01:47:33;3.70;;;1.40;;
44181;SDS011;30436;48.888;9.202;2022-07-11T01:49:58;1.90;;;1.50;;
44181;SDS011;30436;48.888;9.202;2022-07-11T01:52:24;1.53;;;1.40;;
44181;SDS011;30436;48.888;9.202;2022-07-11T01:54:51;2.43;;;1.53;;
44181;SDS011;30436;48.888;9.202;2022-07-11T01:57:16;1.63;;;1.53;;
44181;SDS011;30436;48.888;9.202;2022-07-11T01:59:42;2.13;;;1.70;;
44181;SDS011;30436;48.888;9.202;2022-07-11T02:02:08;1.70;;;1.60;;
44181;SDS011;30436;48.888;9.202;2022-07-11T02:04:33;1.53;;;1.43;;
44181;SDS011;30436;48.888;9.202;2022-07-11T02:06:59;1.60;;;1.50;;
44181;SDS011;30436;48.888;9.202;2022-07-11T02:09:25;2.40;;;1.60;;
44181;SDS011;30436;48.888;9.202;2022-07-11T02:11:50;2.27;;;1.57;;
44181;SDS011;30436;48.888;9.202;2022-07-11T02:14:16;1.80;;;1.50;;
44181;SDS011;30436;48.888;9.202;2022-07-11T02:16:42;2.13;;;1.57;;
44181;SDS011;30436;48.888;9.202;2022-07-11T02:19:07;1.87;;;1.40;;
44181;SDS011;30436;48.888;9.202;2022-07-11T02:21:35;1.57;;;1.40;;
44181;SDS011;30436;48.888;9.202;2022-07-11T02:24:01;1.93;;;1.30;;
44181;SDS011;30436;48.888;9.202;2022-07-11T02:26:27;1.77;;;1.40;;
44181;SDS011;30436;48.888;9.202;2022-07-11T02:28:53;1.50;;;1.40;;
44181;SDS011;30436;48.888;9.202;2022-07-11T02:31:19;2.00;;;1.27;;
44181;SDS011;30436;48.888;9.202;2022-07-11T02:33:45;2.37;;;1.50;;
44181;SDS011;30436;48.888;9.202;2022-07-11T02:36:10;1.60;;;1.50;;
44181;SDS011;30436;48.888;9.202;2022-07-11T02:38:36;2.10;;;1.60;;
44181;SDS011;30436;48.888;9.202;2022-07-11T02:41:02;2.70;;;1.57;;
44181;SDS011;30436;48.888;9.202;2022-07-11T02:43:28;2.40;;;1.63;;
44181;SDS011;30436;48.888;9.202;2022-07-11T02:45:54;1.60;;;1.50;;
44181;SDS011;30436;48.888;9.202;2022-07-11T02:48:20;1.53;;;1.43;;
44181;SDS011;30436;48.888;9.202;2022-07-11T02:50:46;2.47;;;1.80;;
44181;SDS011;30436;48.888;9.202;2022-07-11T02:53:13;2.47;;;1.70;;
44181;SDS011;30436;48.888;9.202;2022-07-11T02:55:39;4.47;;;1.93;;
44181;SDS011;30436;48.888;9.202;2022-07-11T02:58:05;3.17;;;1.87;;
44181;SDS011;30436;48.888;9.202;2022-07-11T03:00:30;3.43;;;1.83;;
44181;SDS011;30436;48.888;9.202;2022-07-11T03:02:56;3.70;;;1.73;;
44181;SDS011;30436;48.888;9.202;2022-07-11T03:05:22;3.00;;;1.97;;
44181;SDS011;30436;48.888;9.202;2022-07-11T03:07:48;1.93;;;1.50;;
44181;SDS011;30436;48.888;9.202;2022-07-11T03:10:14;1.67;;;1.53;;
44181;SDS011;30436;48.888;9.202;2022-07-11T03:12:40;4.93;;;1.73;;
44181;SDS011;30436;48.888;9.202;2022-07-11T03:15:07;2.03;;;1.67;;
44181;SDS011;30436;48.888;9.202;2022-07-11T03:17:33;1.80;;;1.70;;
44181;SDS011;30436;48.888;9.202;2022-07-11T03:19:59;1.80;;;1.60;;
44181;SDS011;30436;48.888;9.202;2022-07-11T03:22:25;2.93;;;1.70;;
44181;SDS011;30436;48.888;9.202;2022-07-11T03:24:51;1.70;;;1.60;;
44181;SDS011;30436;48.888;9.202;2022-07-11T03:27:17;2.30;;;1.80;;
44181;SDS011;30436;48.888;9.202;2022-07-11T03:29:43;2.90;;;2.03;;
44181;SDS011;30436;48.888;9.202;2022-07-11T03:32:09;2.00;;;1.80;;
44181;SDS011;30436;48.888;9.202;2022-07-11T03:34:34;1.60;;;1.50;;
44181;SDS011;30436;48.888;9.202;2022-07-11T03:37:00;2.60;;;1.60;;
44181;SDS011;30436;48.888;9.202;2022-07-11T03:39:27;2.53;;;1.70;;
44181;SDS011;30436;48.888;9.202;2022-07-11T03:41:54;2.30;;;1.90;;
44181;SDS011;30436;48.888;9.202;2022-07-11T03:44:19;3.07;;;1.70;;
44181;SDS011;30436;48.888;9.202;2022-07-11T03:46:45;2.63;;;1.80;;
44181;SDS011;30436;48.888;9.202;2022-07-11T03:49:11;2.00;;;1.80;;
44181;SDS011;30436;48.888;9.202;2022-07-11T03:51:36;2.43;;;1.80;;
44181;SDS011;30436;48.888;9.202;2022-07-11T03:54:02;3.37;;;2.00;;
44181;SDS011;30436;48.888;9.202;2022-07-11T03:56:28;1.70;;;1.60;;
44181;SDS011;30436;48.888;9.202;2022-07-11T03:58:54;2.27;;;1.90;;
44181;SDS011;30436;48.888;9.202;2022-07-11T04:01:20;2.83;;;2.07;;
44181;SDS011;30436;48.888;9.202;2022-07-11T04:03:46;2.60;;;1.63;;
44181;SDS011;30436;48.888;9.202;2022-07-11T04:06:12;4.13;;;1.80;;
44181;SDS011;30436;48.888;9.202;2022-07-11T04:08:39;2.23;;;2.03;;
44181;SDS011;30436;48.888;9.202;2022-07-11T04:11:04;1.63;;;1.53;;
44181;SDS011;30436;48.888;9.202;2022-07-11T04:13:30;2.00;;;1.90;;
44181;SDS011;30436;48.888;9.202;2022-07-11T04:15:56;2.17;;;1.97;;
44181;SDS011;30436;48.888;9.202;2022-07-11T04:18:22;2.40;;;2.00;;
44181;SDS011;30436;48.888;9.202;2022-07-11T04:20:48;2.13;;;1.70;;
44181;SDS011;30436;48.888;9.202;2022-07-11T04:23:14;3.07;;;1.90;;
44181;SDS011;30436;48.888;9.202;2022-07-11T04:25:40;2.30;;;2.10;;
44181;SDS011;30436;48.888;9.202;2022-07-11T04:28:06;2.40;;;2.20;;
44181;SDS011;30436;48.888;9.202;2022-07-11T04:30:32;2.30;;;2.10;;
44181;SDS011;30436;48.888;9.202;2022-07-11T04:32:58;3.10;;;1.80;;
44181;SDS011;30436;48.888;9.202;2022-07-11T04:35:24;3.63;;;2.20;;
44181;SDS011;30436;48.888;9.202;2022-07-11T04:37:52;2.23;;;2.03;;
44181;SDS011;30436;48.888;9.202;2022-07-11T04:40:19;2.30;;;1.87;;
44181;SDS011;30436;48.888;9.202;2022-07-11T04:42:46;2.00;;;1.80;;
44181;SDS011;30436;48.888;9.202;2022-07-11T04:45:11;2.40;;;2.20;;
44181;SDS011;30436;48.888;9.202;2022-07-11T04:47:37;3.17;;;2.03;;
44181;SDS011;30436;48.888;9.202;2022-07-11T04:50:03;3.20;;;1.97;;
44181;SDS011;30436;48.888;9.202;2022-07-11T04:52:29;3.60;;;2.13;;
44181;SDS011;30436;48.888;9.202;2022-07-11T04:54:55;2.23;;;2.03;;
44181;SDS011;30436;48.888;9.202;2022-07-11T04:57:21;2.47;;;2.20;;
44181;SDS011;30436;48.888;9.202;2022-07-11T04:59:46;2.60;;;2.40;;
44181;SDS011;30436;48.888;9.202;2022-07-11T05:02:12;2.77;;;2.20;;
44181;SDS011;30436;48.888;9.202;2022-07-11T05:04:38;3.17;;;2.17;;
44181;SDS011;30436;48.888;9.202;2022-07-11T05:07:03;3.10;;;2.73;;
44181;SDS011;30436;48.888;9.202;2022-07-11T05:09:29;2.33;;;2.13;;
44181;SDS011;30436;48.888;9.202;2022-07-11T05:11:55;3.57;;;2.77;;
44181;SDS011;30436;48.888;9.202;2022-07-11T05:14:21;3.70;;;2.77;;
44181;SDS011;30436;48.888;9.202;2022-07-11T05:16:47;4.60;;;2.80;;
44181;SDS011;30436;48.888;9.202;2022-07-11T05:19:12;2.83;;;2.63;;
44181;SDS011;30436;48.888;9.202;2022-07-11T05:21:38;3.87;;;2.87;;
44181;SDS011;30436;48.888;9.202;2022-07-11T05:24:04;2.97;;;2.60;;
44181;SDS011;30436;48.888;9.202;2022-07-11T05:26:29;3.13;;;2.50;;
44181;SDS011;30436;48.888;9.202;2022-07-11T05:28:55;3.70;;;2.40;;
44181;SDS011;30436;48.888;9.202;2022-07-11T05:31:21;3.93;;;2.10;;
44181;SDS011;30436;48.888;9.202;2022-07-11T05:33:46;3.53;;;2.70;;
44181;SDS011;30436;48.888;9.202;2022-07-11T05:36:12;4.80;;;2.60;;
44181;SDS011;30436;48.888;9.202;2022-07-11T05:38:38;3.80;;;2.13;;
44181;SDS011;30436;48.888;9.202;2022-07-11T05:41:04;2.23;;;2.00;;
44181;SDS011;30436;48.888;9.202;2022-07-11T05:43:29;4.70;;;2.10;;
44181;SDS011;30436;48.888;9.202;2022-07-11T05:45:55;2.73;;;2.50;;
44181;SDS011;30436;48.888;9.202;2022-07-11T05:48:21;2.43;;;2.23;;
44181;SDS011;30436;48.888;9.202;2022-07-11T05:50:46;2.90;;;2.63;;
44181;SDS011;30436;48.888;9.202;2022-07-11T05:53:12;2.10;;;2.00;;
44181;SDS011;30436;48.888;9.202;2022-07-11T05:55:38;3.40;;;2.40;;
44181;SDS011;30436;48.888;9.202;2022-07-11T05:58:04;2.63;;;2.43;;
44181;SDS011;30436;48.888;9.202;2022-07-11T06:00:29;3.43;;;2.30;;
44181;SDS011;30436;48.888;9.202;2022-07-11T06:02:55;2.30;;;2.10;;
44181;SDS011;30436;48.888;9.202;2022-07-11T06:05:20;2.20;;;2.00;;
44181;SDS011;30436;48.888;9.202;2022-07-11T06:07:47;2.73;;;2.10;;
44181;SDS011;30436;48.888;9.202;2022-07-11T06:10:31;2.87;;;2.47;;
44181;SDS011;30436;48.888;9.202;2022-07-11T06:13:00;3.17;;;2.40;;
44181;SDS011;30436;48.888;9.202;2022-07-11T06:15:26;3.90;;;2.20;;
44181;SDS011;30436;48.888;9.202;2022-07-11T06:17:51;3.70;;;2.10;;
44181;SDS011;30436;48.888;9.202;2022-07-11T06:20:17;3.30;;;2.20;;
44181;SDS011;30436;48.888;9.202;2022-07-11T06:22:43;2.43;;;2.03;;
44181;SDS011;30436;48.888;9.202;2022-07-11T06:25:09;4.23;;;2.10;;
44181;SDS011;30436;48.888;9.202;2022-07-11T06:27:35;2.63;;;2.20;;
44181;SDS011;30436;48.888;9.202;2022-07-11T06:30:02;5.77;;;3.03;;
44181;SDS011;30436;48.888;9.202;2022-07-11T06:32:28;3.30;;;2.13;;
44181;SDS011;30436;48.888;9.202;2022-07-11T06:34:54;3.03;;;2.50;;
44181;SDS011;30436;48.888;9.202;2022-07-11T06:37:19;2.50;;;2.30;;
44181;SDS011;30436;48.888;9.202;2022-07-11T06:39:45;2.17;;;1.83;;
44181;SDS011;30436;48.888;9.202;2022-07-11T06:42:11;2.50;;;2.30;;
44181;SDS011;30436;48.888;9.202;2022-07-11T06:44:36;2.23;;;2.03;;
44181;SDS011;30436;48.888;9.202;2022-07-11T06:47:02;2.97;;;2.20;;
44181;SDS011;30436;48.888;9.202;2022-07-11T06:49:28;3.10;;;2.10;;
44181;SDS011;30436;48.888;9.202;2022-07-11T06:51:53;2.30;;;2.10;;
44181;SDS011;30436;48.888;9.202;2022-07-11T06:54:19;2.57;;;2.27;;
44181;SDS011;30436;48.888;9.202;2022-07-11T06:56:44;3.00;;;2.30;;
44181;SDS011;30436;48.888;9.202;2022-07-11T06:59:10;2.47;;;2.27;;
44181;SDS011;30436;48.888;9.202;2022-07-11T07:01:36;3.00;;;2.70;;
44181;SDS011;30436;48.888;9.202;2022-07-11T07:04:02;3.40;;;2.90;;
44181;SDS011;30436;48.888;9.202;2022-07-11T07:06:28;4.43;;;2.47;;
44181;SDS011;30436;48.888;9.202;2022-07-11T07:08:53;2.70;;;2.50;;
44181;SDS011;30436;48.888;9.202;2022-07-11T07:11:19;2.23;;;2.03;;
44181;SDS011;30436;48.888;9.202;2022-07-11T07:13:45;2.53;;;2.33;;
44181;SDS011;30436;48.888;9.202;2022-07-11T07:16:11;3.53;;;2.43;;
44181;SDS011;30436;48.888;9.202;2022-07-11T07:18:37;2.10;;;1.90;;
44181;SDS011;30436;48.888;9.202;2022-07-11T07:21:05;3.23;;;2.60;;
44181;SDS011;30436;48.888;9.202;2022-07-11T07:23:31;3.97;;;2.90;;
44181;SDS011;30436;48.888;9.202;2022-07-11T07:25:57;2.97;;;2.43;;
44181;SDS011;30436;48.888;9.202;2022-07-11T07:28:23;2.70;;;2.50;;
44181;SDS011;30436;48.888;9.202;2022-07-11T07:30:49;2.50;;;2.20;;
44181;SDS011;30436;48.888;9.202;2022-07-11T07:33:14;8.67;;;2.60;;
44181;SDS011;30436;48.888;9.202;2022-07-11T07:35:40;3.40;;;2.53;;
44181;SDS011;30436;48.888;9.202;2022-07-11T07:38:06;2.63;;;2.10;;
44181;SDS011;30436;48.888;9.202;2022-07-11T07:40:32;2.90;;;2.20;;
44181;SDS011;30436;48.888;9.202;2022-07-11T07:42:57;2.03;;;1.83;;
44181;SDS011;30436;48.888;9.202;2022-07-11T07:45:23;3.97;;;1.80;;
44181;SDS011;30436;48.888;9.202;2022-07-11T07:47:49;1.70;;;1.60;;
44181;SDS011;30436;48.888;9.202;2022-07-11T07:50:15;4.07;;;2.03;;
44181;SDS011;30436;48.888;9.202;2022-07-11T07:52:41;3.23;;;1.87;;
44181;SDS011;30436;48.888;9.202;2022-07-11T07:55:06;1.77;;;1.67;;
44181;SDS011;30436;48.888;9.202;2022-07-11T07:57:33;2.30;;;2.10;;
44181;SDS011;30436;48.888;9.202;2022-07-11T07:59:59;2.43;;;1.80;;
44181;SDS011;30436;48.888;9.202;2022-07-11T08:02:43;2.33;;;2.13;;
44181;SDS011;30436;48.888;9.202;2022-07-11T08:05:09;1.90;;;1.80;;
44181;SDS011;30436;48.888;9.202;2022-07-11T08:07:35;3.23;;;1.63;;
44181;SDS011;30436;48.888;9.202;2022-07-11T08:10:02;2.07;;;1.97;;
44181;SDS011;30436;48.888;9.202;2022-07-11T08:12:31;2.63;;;1.97;;
44181;SDS011;30436;48.888;9.202;2022-07-11T08:14:57;2.87;;;1.83;;
44181;SDS011;30436;48.888;9.202;2022-07-11T08:17:22;3.63;;;1.70;;
44181;SDS011;30436;48.888;9.202;2022-07-11T08:19:48;1.80;;;1.70;;
44181;SDS011;30436;48.888;9.202;2022-07-11T08:22:13;2.73;;;1.90;;
44181;SDS011;30436;48.888;9.202;2022-07-11T08:24:39;1.90;;;1.70;;
44181;SDS011;30436;48.888;9.202;2022-07-11T08:27:05;2.40;;;1.80;;
44181;SDS011;30436;48.888;9.202;2022-07-11T08:29:30;2.65;;;1.75;;
44181;SDS011;30436;48.888;9.202;2022-07-11T08:31:56;1.70;;;1.50;;
44181;SDS011;30436;48.888;9.202;2022-07-11T08:34:22;1.27;;;1.25;;
44181;SDS011;30436;48.888;9.202;2022-07-11T08:36:47;1.85;;;1.55;;
44181;SDS011;30436;48.888;9.202;2022-07-11T08:39:13;1.58;;;1.48;;
44181;SDS011;30436;48.888;9.202;2022-07-11T08:41:42;1.43;;;1.33;;
44181;SDS011;30436;48.888;9.202;2022-07-11T08:44:09;1.40;;;1.30;;
44181;SDS011;30436;48.888;9.202;2022-07-11T08:46:36;3.13;;;1.20;;
44181;SDS011;30436;48.888;9.202;2022-07-11T08:49:03;2.17;;;1.30;;
44181;SDS011;30436;48.888;9.202;2022-07-11T08:51:30;1.53;;;1.10;;
44181;SDS011;30436;48.888;9.202;2022-07-11T08:53:56;1.30;;;1.20;;
44181;SDS011;30436;48.888;9.202;2022-07-11T08:56:22;1.60;;;1.50;;
44181;SDS011;30436;48.888;9.202;2022-07-11T08:58:51;1.70;;;1.40;;
44181;SDS011;30436;48.888;9.202;2022-07-11T09:01:19;2.57;;;1.27;;
44181;SDS011;30436;48.888;9.202;2022-07-11T09:03:50;2.10;;;1.20;;
44181;SDS011;30436;48.888;9.202;2022-07-11T09:06:18;1.03;;;1.03;;
44181;SDS011;30436;48.888;9.202;2022-07-11T09:08:43;2.47;;;1.00;;
44181;SDS011;30436;48.888;9.202;2022-07-11T09:11:09;2.63;;;1.00;;
44181;SDS011;30436;48.888;9.202;2022-07-11T09:13:35;1.53;;;1.10;;
44181;SDS011;30436;48.888;9.202;2022-07-11T09:16:02;0.83;;;0.83;;
44181;SDS011;30436;48.888;9.202;2022-07-11T09:20:56;0.93;;;0.93;;
44181;SDS011;30436;48.888;9.202;2022-07-11T09:23:45;0.90;;;0.90;;
44181;SDS011;30436;48.888;9.202;2022-07-11T09:26:34;1.30;;;1.20;;
44181;SDS011;30436;48.888;9.202;2022-07-11T09:29:08;1.17;;;1.00;;
44181;SDS011;30436;48.888;9.202;2022-07-11T09:31:39;1.27;;;0.83;;
44181;SDS011;30436;48.888;9.202;2022-07-11T09:34:09;1.07;;;0.97;;
44181;SDS011;30436;48.888;9.202;2022-07-11T09:36:42;1.50;;;1.00;;
44181;SDS011;30436;48.888;9.202;2022-07-11T09:39:13;1.53;;;1.20;;
44181;SDS011;30436;48.888;9.202;2022-07-11T09:41:43;1.30;;;1.20;;
44181;SDS011;30436;48.888;9.202;2022-07-11T09:46:41;1.38;;;1.05;;
44181;SDS011;30436;48.888;9.202;2022-07-11T09:49:09;2.25;;;1.10;;
44181;SDS011;30436;48.888;9.202;2022-07-11T09:51:35;1.20;;;1.10;;
44181;SDS011;30436;48.888;9.202;2022-07-11T09:54:02;1.48;;;1.20;;
44181;SDS011;30436;48.888;9.202;2022-07-11T09:59:06;1.35;;;1.27;;
44181;SDS011;30436;48.888;9.202;2022-07-11T10:01:35;1.30;;;1.20;;
44181;SDS011;30436;48.888;9.202;2022-07-11T10:04:01;2.25;;;1.33;;
44181;SDS011;30436;48.888;9.202;2022-07-11T10:06:29;1.20;;;1.10;;
44181;SDS011;30436;48.888;9.202;2022-07-11T10:08:54;1.20;;;1.10;;
44181;SDS011;30436;48.888;9.202;2022-07-11T10:11:21;2.58;;;1.25;;
44181;SDS011;30436;48.888;9.202;2022-07-11T10:13:47;1.95;;;1.05;;
44181;SDS011;30436;48.888;9.202;2022-07-11T10:16:59;1.63;;;1.40;;
44181;SDS011;30436;48.888;9.202;2022-07-11T10:21:31;1.10;;;1.10;;
44181;SDS011;30436;48.888;9.202;2022-07-11T10:24:23;1.60;;;1.20;;
44181;SDS011;30436;48.888;9.202;2022-07-11T10:26:59;1.00;;;1.00;;
44181;SDS011;30436;48.888;9.202;2022-07-11T10:29:34;1.23;;;1.10;;
44181;SDS011;30436;48.888;9.202;2022-07-11T10:32:10;1.10;;;1.08;;
44181;SDS011;30436;48.888;9.202;2022-07-11T10:34:36;1.33;;;1.10;;
44181;SDS011;30436;48.888;9.202;2022-07-11T10:37:03;1.20;;;1.10;;
44181;SDS011;30436;48.888;9.202;2022-07-11T10:39:30;1.42;;;1.20;;
44181;SDS011;30436;48.888;9.202;2022-07-11T10:41:58;2.03;;;1.20;;
44181;SDS011;30436;48.888;9.202;2022-07-11T10:44:25;1.38;;;1.10;;
44181;SDS011;30436;48.888;9.202;2022-07-11T10:46:53;1.17;;;1.08;;
44181;SDS011;30436;48.888;9.202;2022-07-11T10:57:19;1.17;;;1.17;;
44181;SDS011;30436;48.888;9.202;2022-07-11T11:13:46;1.52;;;1.17;;
44181;SDS011;30436;48.888;9.202;2022-07-11T11:16:45;1.92;;;1.23;;
44181;SDS011;30436;48.888;9.202;2022-07-11T11:22:15;1.58;;;1.40;;
44181;SDS011;30436;48.888;9.202;2022-07-11T11:24:43;3.42;;;1.30;;
44181;SDS011;30436;48.888;9.202;2022-07-11T11:27:16;1.80;;;1.35;;
44181;SDS011;30436;48.888;9.202;2022-07-11T11:29:47;1.30;;;1.20;;
44181;SDS011;30436;48.888;9.202;2022-07-11T11:32:20;1.67;;;1.20;;
44181;SDS011;30436;48.888;9.202;2022-07-11T11:34:47;1.33;;;1.23;;
44181;SDS011;30436;48.888;9.202;2022-07-11T11:37:14;1.70;;;1.60;;
44181;SDS011;30436;48.888;9.202;2022-07-11T11:39:42;1.80;;;1.23;;
44181;SDS011;30436;48.888;9.202;2022-07-11T11:42:09;1.83;;;1.40;;
44181;SDS011;30436;48.888;9.202;2022-07-11T11:47:19;2.03;;;1.48;;
44181;SDS011;30436;48.888;9.202;2022-07-11T11:49:45;1.63;;;1.40;;
44181;SDS011;30436;48.888;9.202;2022-07-11T11:52:12;1.40;;;1.25;;
44181;SDS011;30436;48.888;9.202;2022-07-11T11:54:39;1.30;;;1.20;;
44181;SDS011;30436;48.888;9.202;2022-07-11T11:57:05;1.45;;;1.33;;
44181;SDS011;30436;48.888;9.202;2022-07-11T11:59:32;1.90;;;1.48;;
44181;SDS011;30436;48.888;9.202;2022-07-11T12:01:58;2.28;;;1.50;;
44181;SDS011;30436;48.888;9.202;2022-07-11T12:04:24;1.35;;;1.27;;
44181;SDS011;30436;48.888;9.202;2022-07-11T12:06:57;2.97;;;1.40;;
44181;SDS011;30436;48.888;9.202;2022-07-11T12:09:22;1.67;;;1.38;;
44181;SDS011;30436;48.888;9.202;2022-07-11T12:12:08;1.35;;;1.25;;
44181;SDS011;30436;48.888;9.202;2022-07-11T12:14:53;1.48;;;1.30;;
44181;SDS011;30436;48.888;9.202;2022-07-11T12:17:26;3.58;;;1.48;;
44181;SDS011;30436;48.888;9.202;2022-07-11T12:19:54;1.48;;;1.30;;
44181;SDS011;30436;48.888;9.202;2022-07-11T12:22:20;3.42;;;1.30;;
44181;SDS011;30436;48.888;9.202;2022-07-11T12:24:46;2.15;;;1.30;;
44181;SDS011;30436;48.888;9.202;2022-07-11T12:29:45;2.05;;;1.55;;
44181;SDS011;30436;48.888;9.202;2022-07-11T12:32:16;1.40;;;1.30;;
44181;SDS011;30436;48.888;9.202;2022-07-11T12:34:44;2.40;;;1.50;;
44181;SDS011;30436;48.888;9.202;2022-07-11T12:37:12;4.47;;;1.80;;
44181;SDS011;30436;48.888;9.202;2022-07-11T12:39:51;1.60;;;1.50;;
44181;SDS011;30436;48.888;9.202;2022-07-11T12:42:27;1.95;;;1.60;;
44181;SDS011;30436;48.888;9.202;2022-07-11T12:47:32;1.50;;;1.40;;
44181;SDS011;30436;48.888;9.202;2022-07-11T12:50:02;2.05;;;1.27;;
44181;SDS011;30436;48.888;9.202;2022-07-11T12:52:43;3.00;;;1.50;;
44181;SDS011;30436;48.888;9.202;2022-07-11T12:55:11;2.05;;;1.50;;
44181;SDS011;30436;48.888;9.202;2022-07-11T13:00:31;2.45;;;1.60;;
44181;SDS011;30436;48.888;9.202;2022-07-11T13:02:58;4.70;;;1.80;;
44181;SDS011;30436;48.888;9.202;2022-07-11T13:05:24;1.80;;;1.50;;
44181;SDS011;30436;48.888;9.202;2022-07-11T13:07:50;2.95;;;1.60;;
44181;SDS011;30436;48.888;9.202;2022-07-11T13:10:34;1.70;;;1.60;;
44181;SDS011;30436;48.888;9.202;2022-07-11T13:13:16;2.95;;;1.50;;
44181;SDS011;30436;48.888;9.202;2022-07-11T13:15:42;1.55;;;1.35;;
44181;SDS011;30436;48.888;9.202;2022-07-11T13:18:08;1.83;;;1.40;;
44181;SDS011;30436;48.888;9.202;2022-07-11T13:20:34;2.80;;;1.73;;
44181;SDS011;30436;48.888;9.202;2022-07-11T13:23:00;4.30;;;1.60;;
44181;SDS011;30436;48.888;9.202;2022-07-11T13:25:27;3.05;;;1.65;;
44181;SDS011;30436;48.888;9.202;2022-07-11T13:27:53;1.77;;;1.60;;
44181;SDS011;30436;48.888;9.202;2022-07-11T13:30:21;1.60;;;1.50;;
44181;SDS011;30436;48.888;9.202;2022-07-11T13:32:50;1.33;;;1.23;;
44181;SDS011;30436;48.888;9.202;2022-07-11T13:35:16;2.80;;;1.60;;
44181;SDS011;30436;48.888;9.202;2022-07-11T13:37:43;2.00;;;1.80;;
44181;SDS011;30436;48.888;9.202;2022-07-11T13:40:10;3.72;;;1.90;;
44181;SDS011;30436;48.888;9.202;2022-07-11T13:42:38;3.63;;;1.75;;
44181;SDS011;30436;48.888;9.202;2022-07-11T13:45:05;2.65;;;1.60;;
44181;SDS011;30436;48.888;9.202;2022-07-11T13:47:32;2.85;;;1.80;;
44181;SDS011;30436;48.888;9.202;2022-07-11T13:49:58;2.80;;;1.90;;
44181;SDS011;30436;48.888;9.202;2022-07-11T13:52:24;2.05;;;1.60;;
44181;SDS011;30436;48.888;9.202;2022-07-11T13:54:50;2.42;;;2.00;;
44181;SDS011;30436;48.888;9.202;2022-07-11T13:57:16;2.65;;;1.70;;
44181;SDS011;30436;48.888;9.202;2022-07-11T13:59:41;2.15;;;1.73;;
44181;SDS011;30436;48.888;9.202;2022-07-11T14:02:07;2.15;;;1.95;;
44181;SDS011;30436;48.888;9.202;2022-07-11T14:04:33;2.78;;;1.85;;
44181;SDS011;30436;48.888;9.202;2022-07-11T14:06:59;1.70;;;1.60;;
44181;SDS011;30436;48.888;9.202;2022-07-11T14:09:25;1.77;;;1.50;;
44181;SDS011;30436;48.888;9.202;2022-07-11T14:11:51;4.28;;;1.80;;
44181;SDS011;30436;48.888;9.202;2022-07-11T14:14:17;3.08;;;1.90;;
44181;SDS011;30436;48.888;9.202;2022-07-11T14:16:43;3.47;;;1.98;;
44181;SDS011;30436;48.888;9.202;2022-07-11T14:19:08;3.10;;;1.67;;
44181;SDS011;30436;48.888;9.202;2022-07-11T14:21:39;4.28;;;1.85;;
44181;SDS011;30436;48.888;9.202;2022-07-11T14:24:05;4.05;;;1.90;;
44181;SDS011;30436;48.888;9.202;2022-07-11T14:26:32;2.08;;;1.60;;
44181;SDS011;30436;48.888;9.202;2022-07-11T14:28:58;2.90;;;1.67;;
44181;SDS011;30436;48.888;9.202;2022-07-11T14:31:24;2.30;;;2.10;;
44181;SDS011;30436;48.888;9.202;2022-07-11T14:33:50;2.67;;;1.70;;
44181;SDS011;30436;48.888;9.202;2022-07-11T14:36:18;3.83;;;2.00;;
44181;SDS011;30436;48.888;9.202;2022-07-11T14:38:45;1.90;;;1.65;;
44181;SDS011;30436;48.888;9.202;2022-07-11T14:41:14;1.83;;;1.70;;
44181;SDS011;30436;48.888;9.202;2022-07-11T14:43:41;3.22;;;1.75;;
44181;SDS011;30436;48.888;9.202;2022-07-11T14:46:07;3.67;;;1.75;;
44181;SDS011;30436;48.888;9.202;2022-07-11T14:48:33;2.88;;;1.95;;
44181;SDS011;30436;48.888;9.202;2022-07-11T14:50:59;2.55;;;1.80;;
44181;SDS011;30436;48.888;9.202;2022-07-11T14:53:25;2.85;;;1.80;;
44181;SDS011;30436;48.888;9.202;2022-07-11T14:55:52;2.10;;;1.80;;
44181;SDS011;30436;48.888;9.202;2022-07-11T14:58:18;2.67;;;1.60;;
44181;SDS011;30436;48.888;9.202;2022-07-11T15:00:44;5.00;;;1.90;;
44181;SDS011;30436;48.888;9.202;2022-07-11T15:03:10;2.40;;;1.77;;
44181;SDS011;30436;48.888;9.202;2022-07-11T15:05:54;4.53;;;1.73;;
44181;SDS011;30436;48.888;9.202;2022-07-11T15:08:20;2.72;;;1.90;;
44181;SDS011;30436;48.888;9.202;2022-07-11T15:11:04;1.95;;;1.60;;
44181;SDS011;30436;48.888;9.202;2022-07-11T15:13:49;2.08;;;1.80;;
44181;SDS011;30436;48.888;9.202;2022-07-11T15:16:14;2.28;;;1.80;;
44181;SDS011;30436;48.888;9.202;2022-07-11T15:18:40;2.40;;;1.45;;
44181;SDS011;30436;48.888;9.202;2022-07-11T15:21:06;2.45;;;1.75;;
44181;SDS011;30436;48.888;9.202;2022-07-11T15:23:32;3.40;;;1.80;;
44181;SDS011;30436;48.888;9.202;2022-07-11T15:25:57;2.75;;;1.83;;
44181;SDS011;30436;48.888;9.202;2022-07-11T15:28:23;2.50;;;1.73;;
44181;SDS011;30436;48.888;9.202;2022-07-11T15:30:49;3.45;;;1.80;;
44181;SDS011;30436;48.888;9.202;2022-07-11T15:33:15;2.80;;;1.58;;
44181;SDS011;30436;48.888;9.202;2022-07-11T15:35:41;4.53;;;1.70;;
44181;SDS011;30436;48.888;9.202;2022-07-11T15:38:07;1.67;;;1.58;;